Home > Products > Valid Products > TAF

000
FTUS43 KBIS 251100
TAFISN
TAF
KISN 251120Z 2512/2612 VRB03KT P6SM BKN100 OVC200
     FM251800 14008KT P6SM SCT100 SCT200=



000
FTUS43 KBIS 251100
TAFMOT
TAF
KMOT 251120Z 2512/2612 28010KT P6SM SCT120 BKN200
     FM251600 VRB06KT P6SM BKN120 BKN200
     FM252300 13008KT P6SM SCT120 SCT200=



000
FTUS43 KBIS 251100
TAFJMS
TAF
KJMS 251120Z 2512/2612 32009KT P6SM BKN120 BKN200
     FM252100 VRB05KT P6SM SCT100
     FM260300 14006KT P6SM SKC=



000
FTUS43 KBIS 251100
TAFDIK
TAF
KDIK 251120Z 2512/2612 VRB05KT P6SM BKN120 BKN200
     FM251600 12008KT P6SM SCT120 BKN200
     FM252100 14013KT P6SM SKC=



000
FTUS43 KBIS 251100
TAFBIS
TAF
KBIS 251120Z 2512/2612 30005KT P6SM BKN120 OVC200
     FM251600 VRB03KT P6SM SCT120 BKN200
     FM252100 12006KT P6SM SKC
     FM260600 12012KT P6SM SCT200=



000
FTUS43 KBIS 251100
TAFJMS
TAF
KJMS 251120Z 2512/2612 32009KT P6SM BKN120 BKN200
     FM252100 VRB05KT P6SM SCT100
     FM260300 14006KT P6SM SKC=



000
FTUS43 KBIS 251100
TAFDIK
TAF
KDIK 251120Z 2512/2612 VRB05KT P6SM BKN120 BKN200
     FM251600 12008KT P6SM SCT120 BKN200
     FM252100 14013KT P6SM SKC=



000
FTUS43 KBIS 251100
TAFMOT
TAF
KMOT 251120Z 2512/2612 28010KT P6SM SCT120 BKN200
     FM251600 VRB06KT P6SM BKN120 BKN200
     FM252300 13008KT P6SM SCT120 SCT200=



000
FTUS43 KBIS 251100
TAFBIS
TAF
KBIS 251120Z 2512/2612 30005KT P6SM BKN120 OVC200
     FM251600 VRB03KT P6SM SCT120 BKN200
     FM252100 12006KT P6SM SKC
     FM260600 12012KT P6SM SCT200=



000
FTUS43 KBIS 251100
TAFISN
TAF
KISN 251120Z 2512/2612 VRB03KT P6SM BKN100 OVC200
     FM251800 14008KT P6SM SCT100 SCT200=



000
FTUS43 KBIS 250500
TAFDIK
TAF
KDIK 250529Z 2506/2606 26006KT P6SM BKN080 BKN200
     FM251100 VRB03KT P6SM BKN080 BKN200
     FM251800 14013KT P6SM SCT080=



000
FTUS43 KBIS 250500
TAFJMS
TAF
KJMS 250529Z 2506/2606 29008KT P6SM SCT100 SCT200
     FM251600 32009KT P6SM BKN100
     FM252100 VRB05KT P6SM SCT100
     FM260100 14006KT P6SM SCT100=



000
FTUS43 KBIS 250500
TAFBIS
TAF
KBIS 250529Z 2506/2606 27006KT P6SM SCT100 BKN200
     FM251200 VRB03KT P6SM BKN100 BKN200
     FM252100 12006KT P6SM SCT100=



000
FTUS43 KBIS 250500
TAFMOT
TAF
KMOT 250529Z 2506/2606 25008KT P6SM SCT200
     FM251500 VRB06KT P6SM BKN100 BKN200
     FM252100 13008KT P6SM SCT100=



000
FTUS43 KBIS 250500
TAFISN
TAF
KISN 250529Z 2506/2606 27006KT P6SM SCT100 BKN200
     FM250900 VRB03KT P6SM SCT100 BKN200
     FM251800 14008KT P6SM SCT100=



000
FTUS43 KBIS 242300
TAFJMS
TAF
KJMS 242320Z 2500/2524 29011KT P6SM FEW120
     FM251600 32009KT P6SM SKC=



000
FTUS43 KBIS 242300
TAFBIS
TAF
KBIS 242320Z 2500/2524 29009KT P6SM BKN120
     FM250800 VRB04KT P6SM SKC=



000
FTUS43 KBIS 242300
TAFDIK
TAF
KDIK 242320Z 2500/2524 27009KT P6SM BKN120
     FM250600 VRB06KT P6SM SKC=



000
FTUS43 KBIS 242300
TAFISN
TAF
KISN 242320Z 2500/2524 27015KT P6SM BKN150
     FM250100 27009KT P6SM BKN150
     FM251100 VRB03KT P6SM SKC=



000
FTUS43 KBIS 242300
TAFMOT
TAF
KMOT 242320Z 2500/2524 27015KT P6SM FEW150
     FM250200 27007KT P6SM FEW200
     FM251800 VRB05KT P6SM SKC=



000
FTUS43 KBIS 241800 AAA
TAFMOT
TAF AMD
KMOT 241825Z 2418/2518 26024G32KT P6SM SCT210
     FM242300 28013KT P6SM FEW180
     FM250100 27007KT P6SM FEW210
     FM251500 26005KT P6SM FEW110=



000
FTUS43 KBIS 241800 AAA
TAFISN
TAF AMD
KISN 241825Z 2418/2518 28022G32KT P6SM SCT200
     FM242300 28012KT P6SM FEW170
     FM250200 27006KT P6SM FEW190
     FM251100 VRB03KT P6SM SCT120=



000
FTUS43 KBIS 241700
TAFMOT
TAF
KMOT 241739Z 2418/2518 26022G28KT P6SM SCT210
     FM242300 28013KT P6SM FEW180
     FM250100 27007KT P6SM FEW210
     FM251500 26005KT P6SM FEW110=



000
FTUS43 KBIS 241700
TAFISN
TAF
KISN 241739Z 2418/2518 28018G26KT P6SM SCT200
     FM242300 28012KT P6SM FEW170
     FM250200 27006KT P6SM FEW190
     FM251100 VRB03KT P6SM SCT120=



000
FTUS43 KBIS 241700
TAFDIK
TAF
KDIK 241739Z 2418/2518 30014G23KT P6SM SCT100
     FM250000 29010KT P6SM SCT100
     FM250700 28004KT P6SM SCT110
     FM251600 15004KT P6SM FEW250=



000
FTUS43 KBIS 241700
TAFJMS
TAF
KJMS 241739Z 2418/2518 28011KT P6SM SCT110
     FM242000 29017G25KT P6SM SCT180
     FM250000 29011KT P6SM SCT130=



000
FTUS43 KBIS 241700
TAFBIS
TAF
KBIS 241739Z 2418/2518 32015G25KT P6SM SCT110
     FM250000 29010KT P6SM SCT110
     FM250800 30004KT P6SM FEW140=



000
FTUS43 KBIS 241600 AAA
TAFISN
TAF AMD
KISN 241601Z 2416/2512 25013G23KT P6SM SCT120
     FM241800 28018G28KT P6SM SCT100
     FM250100 25006KT P6SM SCT100 BKN250=



000
FTUS43 KBIS 241200 AAA
TAFMOT
TAF AMD
KMOT 241231Z 2413/2512 22010KT P6SM BKN250
     FM241500 25015G21KT P6SM SCT100 BKN250
     FM241800 26024G35KT P6SM SCT100 BKN250
     FM250100 26012KT P6SM SCT100 BKN250=



000
FTUS43 KBIS 241100
TAFBIS
TAF
KBIS 241120Z 2412/2512 22005KT P6SM BKN250
     FM241600 27013KT P6SM SCT100 BKN250
     FM241800 29015G21KT P6SM SCT100 BKN250
     FM250000 30005KT P6SM SCT100 BKN250=



000
FTUS43 KBIS 241100
TAFMOT
TAF
KMOT 241120Z 2412/2512 22010KT P6SM BKN250
     FM241500 25015G21KT P6SM SCT100 BKN250
     FM241800 26022G30KT P6SM SCT100 BKN250
     FM250100 26012KT P6SM SCT100 BKN250=



000
FTUS43 KBIS 241100
TAFDIK
TAF
KDIK 241120Z 2412/2512 26007KT P6SM BKN250
     FM241500 27014KT P6SM SCT100 BKN250
     FM241800 29018G24KT P6SM BKN100 BKN250
     FM250000 27005KT P6SM BKN100 BKN250=



000
FTUS43 KBIS 241100
TAFISN
TAF
KISN 241120Z 2412/2512 22008KT P6SM SCT100 BKN250
     FM241500 25010KT P6SM SCT100 BKN250
     FM241800 28018G24KT P6SM SCT100 BKN250
     FM250100 25006KT P6SM SCT100 BKN250=



000
FTUS43 KBIS 241100
TAFJMS
TAF
KJMS 241120Z 2412/2512 22008KT P6SM BKN250
     FM241600 26012KT P6SM SCT100 BKN250
     FM241900 28017G23KT P6SM SCT100 BKN250
     FM250100 28007KT P6SM SCT100 BKN250=



000
FTUS43 KBIS 240500
TAFDIK
TAF
KDIK 240531Z 2406/2506 22007KT P6SM BKN250
     FM241500 26014KT P6SM SCT100 BKN250
     FM241800 29018G24KT P6SM BKN100 BKN250
     FM250000 27005KT P6SM BKN100 BKN250=



000
FTUS43 KBIS 240500
TAFMOT
TAF
KMOT 240531Z 2406/2506 22009KT P6SM BKN250
     FM241500 25015G21KT P6SM SCT100 BKN250
     FM241800 26022G30KT P6SM SCT100 BKN250
     FM250100 26012KT P6SM SCT100 BKN250=



000
FTUS43 KBIS 240500
TAFJMS
TAF
KJMS 240531Z 2406/2506 22008KT P6SM BKN250
     FM241600 26012KT P6SM SCT100 BKN250
     FM241900 28017G23KT P6SM SCT100 BKN250
     FM250100 28007KT P6SM SCT100 BKN250=



000
FTUS43 KBIS 240500
TAFISN
TAF
KISN 240531Z 2406/2506 22006KT P6SM SCT100 BKN250
     FM241500 25010KT P6SM SCT100 BKN250
     FM241800 28018G24KT P6SM SCT100 BKN250
     FM250100 25006KT P6SM SCT100 BKN250=



000
FTUS43 KBIS 240500
TAFBIS
TAF
KBIS 240531Z 2406/2506 22005KT P6SM BKN250
     FM241600 27013KT P6SM SCT100 BKN250
     FM241800 29015G21KT P6SM SCT100 BKN250
     FM250000 30005KT P6SM SCT100 BKN250=



000
FTUS43 KBIS 232300
TAFMOT
TAF
KMOT 232320Z 2400/2424 22009KT P6SM BKN250
     FM241600 26019G27KT P6SM BKN250=



000
FTUS43 KBIS 232300
TAFJMS
TAF
KJMS 232320Z 2400/2424 22009KT P6SM BKN250
     FM241900 28013G19KT P6SM BKN250=



000
FTUS43 KBIS 232300
TAFBIS
TAF
KBIS 232320Z 2400/2424 24009KT P6SM BKN250
     FM241800 29013G19KT P6SM BKN250=



000
FTUS43 KBIS 232300
TAFISN
TAF
KISN 232320Z 2400/2424 24009KT P6SM BKN250
     FM241700 28016G24KT P6SM BKN250=



000
FTUS43 KBIS 232300
TAFDIK
TAF
KDIK 232320Z 2400/2424 24009KT P6SM BKN250
     FM241700 29016G24KT P6SM BKN250=



000
FTUS43 KBIS 231700
TAFJMS
TAF
KJMS 231734Z 2318/2418 22012KT P6SM SKC
     FM241500 26010KT P6SM FEW120=



000
FTUS43 KBIS 231700
TAFDIK
TAF
KDIK 231734Z 2318/2418 22013KT P6SM SCT150
     FM241500 28012KT P6SM SCT080=



000
FTUS43 KBIS 231700
TAFBIS
TAF
KBIS 231734Z 2318/2418 24010KT P6SM SCT150
     FM241600 27013KT P6SM SCT100=



000
FTUS43 KBIS 231700
TAFISN
TAF
KISN 231734Z 2318/2418 21010KT P6SM BKN200
     FM240300 23005KT P6SM SCT110
     FM241500 27014KT P6SM SCT100=



000
FTUS43 KBIS 231700
TAFMOT
TAF
KMOT 231734Z 2318/2418 21011KT P6SM SCT150
     FM241600 26018G26KT P6SM SCT100=



000
FTUS43 KBIS 231100
TAFDIK
TAF
KDIK 231120Z 2312/2412 21006KT P6SM SKC
     FM231800 24012KT P6SM SKC
     FM240100 21007KT P6SM BKN100=



000
FTUS43 KBIS 231100
TAFMOT
TAF
KMOT 231120Z 2312/2412 22013KT P6SM SKC
     FM240200 21007KT P6SM SCT100=



000
FTUS43 KBIS 231100
TAFBIS
TAF
KBIS 231120Z 2312/2412 23004KT P6SM SKC
     FM231800 22009KT P6SM SKC
     FM240200 19005KT P6SM SCT100=



000
FTUS43 KBIS 231100
TAFISN
TAF
KISN 231120Z 2312/2412 20008KT P6SM SKC
     FM240000 23005KT P6SM SCT100=



000
FTUS43 KBIS 231100
TAFJMS
TAF
KJMS 231120Z 2312/2412 23006KT P6SM SCT060
     FM231800 23012KT P6SM SKC
     FM240200 19007KT P6SM SCT100=



000
FTUS43 KBIS 230500
TAFMOT
TAF
KMOT 230536Z 2306/2406 22007KT P6SM SCT060
     FM231800 22012KT P6SM SKC
     FM240200 21007KT P6SM BKN100=



000
FTUS43 KBIS 230500
TAFDIK
TAF
KDIK 230536Z 2306/2406 23006KT P6SM SKC
     FM231800 24012KT P6SM SKC
     FM240100 21007KT P6SM BKN100=



000
FTUS43 KBIS 230500
TAFISN
TAF
KISN 230536Z 2306/2406 25006KT P6SM SKC
     FM231200 20007KT P6SM SKC
     FM240000 24004KT P6SM BKN100=



000
FTUS43 KBIS 230500
TAFJMS
TAF
KJMS 230536Z 2306/2406 23006KT P6SM SCT060
     FM231800 23012KT P6SM SKC
     FM240200 19007KT P6SM SCT100=



000
FTUS43 KBIS 230500
TAFBIS
TAF
KBIS 230536Z 2306/2406 23004KT P6SM SKC
     FM231800 22009KT P6SM SKC
     FM240200 19005KT P6SM BKN100=



000
FTUS43 KBIS 222300
TAFBIS
TAF
KBIS 222332Z 2300/2324 25009KT P6SM SKC=



000
FTUS43 KBIS 222300
TAFISN
TAF
KISN 222332Z 2300/2324 27010G18KT P6SM SKC
     FM230100 25009KT P6SM SKC=



000
FTUS43 KBIS 222300
TAFMOT
TAF
KMOT 222332Z 2300/2324 25016KT P6SM OVC050
     FM230300 24009KT P6SM SKC=



000
FTUS43 KBIS 222300
TAFJMS
TAF
KJMS 222332Z 2300/2324 23008KT P6SM SCT250=



000
FTUS43 KBIS 222300
TAFDIK
TAF
KDIK 222332Z 2300/2324 27016KT P6SM SKC
     FM230100 24009KT P6SM SKC=



000
FTUS43 KBIS 221900 AAA
TAFISN
TAF AMD
KISN 221955Z 2220/2318 29022G26KT P6SM BKN050
     FM222300 28010KT P6SM SCT080
     FM231100 00000KT P6SM FEW250=



000
FTUS43 KBIS 221700
TAFMOT
TAF
KMOT 221738Z 2218/2318 24012G20KT P6SM SCT100
     FM222200 25015G23KT P6SM BKN035
     FM230000 25010KT P6SM SCT050
     FM231700 21008KT P6SM FEW250=



000
FTUS43 KBIS 221700
TAFBIS
TAF
KBIS 221738Z 2218/2318 27011KT P6SM OVC090
     FM221900 27013G20KT P6SM SCT110
     FM230000 27005KT P6SM SCT250=



000
FTUS43 KBIS 221700
TAFISN
TAF
KISN 221738Z 2218/2318 26014G24KT P6SM SCT025
     FM222000 27016G24KT P6SM BKN030
     FM222300 28010KT P6SM SCT080
     FM231100 00000KT P6SM FEW250=



000
FTUS43 KBIS 221700
TAFJMS
TAF
KJMS 221738Z 2218/2318 31006KT P6SM -SHRA OVC080
     FM222000 29012KT P6SM BKN100
     FM230000 23008KT P6SM SCT250=



000
FTUS43 KBIS 221700
TAFDIK
TAF
KDIK 221738Z 2218/2318 27022G27KT P6SM SKC
     FM222300 26012KT P6SM FEW250
     FM231700 22008KT P6SM FEW250=



000
FTUS43 KBIS 221700
TAFDIK
TAF
KDIK 221738Z 2218/2318 27022G27KT P6SM SKC
     FM222300 26012KT P6SM FEW250
     FM231700 22008KT P6SM FEW250=



000
FTUS43 KBIS 221700
TAFMOT
TAF
KMOT 221738Z 2218/2318 24012G20KT P6SM SCT100
     FM222200 25015G23KT P6SM BKN035
     FM230000 25010KT P6SM SCT050
     FM231700 21008KT P6SM FEW250=



000
FTUS43 KBIS 221700
TAFBIS
TAF
KBIS 221738Z 2218/2318 27011KT P6SM OVC090
     FM221900 27013G20KT P6SM SCT110
     FM230000 27005KT P6SM SCT250=



000
FTUS43 KBIS 221700
TAFISN
TAF
KISN 221738Z 2218/2318 26014G24KT P6SM SCT025
     FM222000 27016G24KT P6SM BKN030
     FM222300 28010KT P6SM SCT080
     FM231100 00000KT P6SM FEW250=



000
FTUS43 KBIS 221700
TAFJMS
TAF
KJMS 221738Z 2218/2318 31006KT P6SM -SHRA OVC080
     FM222000 29012KT P6SM BKN100
     FM230000 23008KT P6SM SCT250=



000
FTUS43 KBIS 221500 AAA
TAFMOT
TAF AMD
KMOT 221516Z 2215/2312 24018G23KT P6SM OVC100
     FM221800 26016G24KT P6SM SCT090
     FM230000 25008KT P6SM SCT040
     FM230300 24007KT P6SM SKC=



    US Dept of Commerce
    National Oceanic and Atmospheric Administration
    National Weather Service
    1325 East West Highway
    Silver Spring, MD 20910
    Page Author: NWS Internet Services Team
Disclaimer
Information Quality
Credits
Glossary
Privacy Policy
Freedom of Information Act (FOIA)
About Us
Career Opportunities